Skip Navigation Links Skip Navigation Links

Current Weather

Chicago O'Hare Intl, Chicago

For information only: do not use for flight planning or navigation.
Latest weather
Observation time Saturday, February 27, 2021 12:51 PM CST
Local time Saturday, February 27, 2021 1:02 PM CST
Flight conditions Visual Meteorological Conditions
Winds
Wind direction Southwest (220°)
Wind speed 6 mph
Visibility 10 mi.
Sky condition
Ceiling unlimited
Cloud layer few clouds 25,000 ft.
Temperature 49°F
Dewpoint 34°F
Altimeter 30.03 in.Hg
Derived measurements
Relative humidity 56%
Wind chill 47°F
Density altitude -27 ft.
Sea-level pressure 30.04 in.Hg
Remarks
Automated weather observing station with precipitation discriminator.
METAR KORD 271851Z 22005KT 10SM FEW250 09/01 A3003 RMK AO2 SLP174 T00940011

Settings

Location code

InnerDrive.Weather 4.0.6770.0 Release CLR 4.0.30319.42000
Copyright ©2018 Inner Drive Technology. All rights reserved. Portions Copyright ©1986-2018 David Braverman.

Find weather

Site navigation


Skip Navigation Links

Place info

Page info

PayPal - The safer, easier way to pay online!

Return home.

Copyright ©2021 Inner Drive Technology. Purveyors of fine, hand-crafted computer software. Page printed 2021-02-27T19:02:40 UTC.